createdAt,value
2023-04-08T00:00:18.077Z,4.50
2023-04-08T00:02:46.766Z,5.05
2023-04-08T00:05:13.971Z,4.53
2023-04-08T00:07:41.062Z,4.68
2023-04-08T00:10:09.032Z,4.57
2023-04-08T00:12:36.304Z,5.10
2023-04-08T00:15:03.839Z,4.43
2023-04-08T00:17:31.405Z,4.63
2023-04-08T00:19:58.894Z,4.82
2023-04-08T00:22:27.176Z,4.22
2023-04-08T00:24:54.543Z,4.47
2023-04-08T00:27:21.565Z,4.65
2023-04-08T00:29:48.987Z,4.38
2023-04-08T00:32:16.286Z,4.40
2023-04-08T00:34:43.524Z,4.13
2023-04-08T00:37:10.925Z,4.47
2023-04-08T00:39:38.663Z,4.30
2023-04-08T00:42:06.216Z,4.40
2023-04-08T00:44:33.250Z,4.20
2023-04-08T00:47:00.721Z,4.30
2023-04-08T00:49:27.871Z,5.03
2023-04-08T00:51:56.489Z,4.53
2023-04-08T00:54:23.956Z,4.60
2023-04-08T00:56:51.357Z,4.45
2023-04-08T00:59:19.098Z,4.55
2023-04-08T01:01:46.313Z,4.18
2023-04-08T01:04:40.789Z,4.28
2023-04-08T01:07:31.542Z,4.15
2023-04-08T01:10:22.372Z,4.78
2023-04-08T01:13:04.131Z,3.97
2023-04-08T01:15:33.780Z,4.72
2023-04-08T01:18:02.236Z,4.40
2023-04-08T01:20:30.686Z,4.50
2023-04-08T01:23:01.442Z,4.45
2023-04-08T01:25:34.597Z,4.50
2023-04-08T01:28:08.185Z,4.32
2023-04-08T01:30:38.144Z,4.93
2023-04-08T01:33:06.688Z,4.22
2023-04-08T01:35:34.406Z,4.30
2023-04-08T01:38:03.640Z,4.55
2023-04-08T01:40:32.002Z,4.40
2023-04-08T01:43:00.895Z,4.57
2023-04-08T01:45:29.116Z,4.10
2023-04-08T01:48:00.408Z,4.10
2023-04-08T01:50:29.516Z,4.45
2023-04-08T01:52:59.257Z,3.97
2023-04-08T01:55:28.072Z,4.38
2023-04-08T01:57:59.990Z,4.68
2023-04-08T02:00:31.242Z,4.38
2023-04-08T02:03:00.346Z,4.05
2023-04-08T02:05:27.543Z,3.80
2023-04-08T02:07:54.763Z,4.28
2023-04-08T02:10:21.921Z,3.72
2023-04-08T02:12:50.088Z,4.32
2023-04-08T02:15:17.530Z,4.00
2023-04-08T02:17:56.244Z,3.95
2023-04-08T02:20:35.121Z,4.68
2023-04-08T02:23:36.528Z,3.95
2023-04-08T02:26:07.900Z,4.32
2023-04-08T02:28:36.276Z,4.10
2023-04-08T02:31:05.999Z,4.13
2023-04-08T02:33:36.978Z,4.28
2023-04-08T02:36:05.873Z,3.55
2023-04-08T02:38:32.998Z,4.00
2023-04-08T02:41:00.309Z,4.03
2023-04-08T02:43:37.047Z,3.80
2023-04-08T02:46:07.991Z,4.10
2023-04-08T02:48:37.093Z,3.92
2023-04-08T02:51:04.382Z,4.10
2023-04-08T02:53:31.451Z,4.45
2023-04-08T02:55:58.695Z,4.28
2023-04-08T02:58:25.964Z,3.97
2023-04-08T03:00:53.076Z,4.20
2023-04-08T03:03:20.396Z,3.72
2023-04-08T03:05:47.682Z,4.20
2023-04-08T03:08:14.947Z,5.18
2023-04-08T03:10:42.109Z,4.53
2023-04-08T03:13:09.162Z,4.40
2023-04-08T03:15:36.591Z,4.50
2023-04-08T03:18:04.678Z,4.55
2023-04-08T03:20:31.828Z,3.65
2023-04-08T03:22:59.061Z,4.35
2023-04-08T03:25:26.596Z,4.03
2023-04-08T03:27:53.661Z,4.57
2023-04-08T03:30:21.222Z,4.50
2023-04-08T03:32:48.655Z,4.80
2023-04-08T03:35:15.874Z,4.47
2023-04-08T03:37:42.925Z,3.97
2023-04-08T03:40:10.795Z,3.80
2023-04-08T03:42:37.964Z,4.13
2023-04-08T03:45:05.727Z,3.78
2023-04-08T03:47:32.919Z,4.10
2023-04-08T03:50:00.240Z,4.00
2023-04-08T03:52:27.384Z,4.10
2023-04-08T03:54:54.490Z,3.80
2023-04-08T03:57:21.627Z,3.70
2023-04-08T03:59:48.729Z,4.25
2023-04-08T04:02:17.002Z,3.80
2023-04-08T04:04:44.253Z,3.83
2023-04-08T04:07:11.334Z,3.65
2023-04-08T04:09:38.595Z,3.55
2023-04-08T04:12:05.892Z,3.67
2023-04-08T04:14:33.037Z,3.88
2023-04-08T04:17:00.079Z,3.80
2023-04-08T04:19:31.473Z,3.63
2023-04-08T04:21:58.708Z,3.67
2023-04-08T04:24:25.770Z,3.85
2023-04-08T04:26:55.124Z,3.85
2023-04-08T04:29:22.337Z,3.25
2023-04-08T04:31:49.699Z,3.60
2023-04-08T04:34:17.335Z,3.47
2023-04-08T04:36:44.406Z,3.65
2023-04-08T04:39:11.432Z,3.50
2023-04-08T04:41:40.882Z,3.60
2023-04-08T04:44:08.172Z,3.53
2023-04-08T04:46:35.454Z,3.80
2023-04-08T04:49:02.550Z,3.55
2023-04-08T04:51:32.965Z,4.03
2023-04-08T04:54:00.180Z,3.83
2023-04-08T04:56:27.418Z,3.22
2023-04-08T04:58:54.623Z,3.38
2023-04-08T05:01:21.856Z,3.33
2023-04-08T05:03:49.076Z,4.03
2023-04-08T05:06:16.304Z,3.13
2023-04-08T05:08:43.448Z,3.50
2023-04-08T05:11:11.341Z,3.88
2023-04-08T05:13:38.808Z,3.22
2023-04-08T05:16:06.762Z,3.20
2023-04-08T05:18:33.920Z,3.70
2023-04-08T05:21:02.684Z,3.90
2023-04-08T05:23:29.947Z,3.22
2023-04-08T05:25:57.412Z,4.25
2023-04-08T05:28:24.540Z,3.10
2023-04-08T05:30:52.416Z,3.53
2023-04-08T05:33:19.783Z,3.72
2023-04-08T05:35:46.949Z,3.17
2023-04-08T05:38:14.448Z,3.78
2023-04-08T05:40:41.708Z,3.50
2023-04-08T05:43:09.040Z,3.60
2023-04-08T05:45:36.405Z,3.45
2023-04-08T05:48:03.677Z,3.03
2023-04-08T05:50:30.835Z,3.22
2023-04-08T05:52:58.102Z,3.97
2023-04-08T05:55:25.438Z,3.30
2023-04-08T05:57:53.756Z,3.25
2023-04-08T06:00:21.504Z,3.60
2023-04-08T06:02:48.903Z,3.95
2023-04-08T06:05:16.542Z,3.70
2023-04-08T06:07:43.686Z,3.78
2023-04-08T06:10:11.052Z,3.88
2023-04-08T06:12:41.174Z,3.83
2023-04-08T06:15:09.964Z,3.50
2023-04-08T06:17:38.016Z,3.60
2023-04-08T06:20:09.549Z,4.00
2023-04-08T06:22:36.785Z,3.70
2023-04-08T06:25:04.690Z,4.03
2023-04-08T06:27:31.927Z,3.97
2023-04-08T06:29:59.389Z,3.40
2023-04-08T06:32:26.611Z,3.70
2023-04-08T06:34:53.911Z,3.50
2023-04-08T06:37:21.164Z,3.72
2023-04-08T06:39:48.367Z,3.90
2023-04-08T06:42:15.815Z,3.67
2023-04-08T06:45:06.546Z,4.03
2023-04-08T06:47:33.786Z,3.20
2023-04-08T06:50:01.305Z,3.47
2023-04-08T06:52:29.749Z,3.28
2023-04-08T06:54:57.192Z,4.35
2023-04-08T06:57:24.305Z,3.13
2023-04-08T06:59:53.143Z,3.70
2023-04-08T07:02:20.251Z,3.85
2023-04-08T07:04:47.526Z,3.63
2023-04-08T07:07:15.245Z,3.70
2023-04-08T07:09:43.653Z,3.05
2023-04-08T07:12:10.954Z,2.83
2023-04-08T07:14:38.184Z,3.88
2023-04-08T07:17:06.476Z,3.10
2023-04-08T07:19:33.845Z,3.45
2023-04-08T07:22:02.619Z,3.25
2023-04-08T07:24:29.876Z,3.35
2023-04-08T07:26:57.222Z,2.78
2023-04-08T07:29:24.928Z,3.20
2023-04-08T07:31:52.190Z,3.08
2023-04-08T07:34:19.521Z,2.90
2023-04-08T07:36:46.576Z,3.40
2023-04-08T07:39:13.856Z,3.00
2023-04-08T07:41:41.072Z,3.38
2023-04-08T07:44:08.306Z,3.53
2023-04-08T07:46:41.806Z,3.38
2023-04-08T07:49:09.959Z,3.67
2023-04-08T07:51:37.114Z,3.13
2023-04-08T07:54:04.270Z,3.65
2023-04-08T07:56:31.467Z,3.30
2023-04-08T07:58:58.870Z,3.20
2023-04-08T08:01:27.997Z,3.50
2023-04-08T08:03:55.666Z,3.47
2023-04-08T08:06:23.045Z,3.30
2023-04-08T08:08:50.154Z,3.40
2023-04-08T08:11:17.460Z,3.33
2023-04-08T08:13:44.819Z,3.20
2023-04-08T08:16:12.627Z,3.65
2023-04-08T08:18:41.190Z,3.45
2023-04-08T08:21:09.815Z,3.40
2023-04-08T08:23:38.093Z,3.47
2023-04-08T08:26:11.136Z,3.78
2023-04-08T08:28:39.637Z,3.22
2023-04-08T08:31:07.839Z,3.70
2023-04-08T08:33:35.050Z,3.47
2023-04-08T08:36:02.326Z,3.83
2023-04-08T08:38:29.523Z,3.92
2023-04-08T08:40:58.388Z,3.83
2023-04-08T08:43:26.470Z,3.88
2023-04-08T08:45:54.429Z,3.58
2023-04-08T08:48:21.801Z,3.53
2023-04-08T08:50:48.975Z,3.78
2023-04-08T08:53:16.600Z,3.88
2023-04-08T08:56:13.453Z,3.70
2023-04-08T08:58:31.417Z,3.80
2023-04-08T09:00:58.440Z,3.83
2023-04-08T09:03:28.370Z,3.90
2023-04-08T09:06:00.495Z,3.63
2023-04-08T09:08:35.212Z,3.70
2023-04-08T09:13:39.663Z,4.00
2023-04-08T09:16:09.131Z,4.20
2023-04-08T09:18:41.662Z,3.83
2023-04-08T09:21:09.029Z,4.07
2023-04-08T09:23:41.897Z,4.15
2023-04-08T09:26:18.101Z,3.97
2023-04-08T09:29:05.898Z,4.00
2023-04-08T09:31:42.769Z,4.20
2023-04-08T09:34:21.039Z,4.07
2023-04-08T09:36:49.408Z,3.47
2023-04-08T09:39:16.862Z,4.10
2023-04-08T09:41:45.286Z,3.50
2023-04-08T09:44:12.637Z,4.50
2023-04-08T09:46:53.272Z,4.32
2023-04-08T09:49:33.763Z,4.55
2023-04-08T09:52:06.837Z,4.93
2023-04-08T09:54:37.054Z,5.70
2023-04-08T09:57:10.038Z,5.88
2023-04-08T09:59:43.116Z,5.60
2023-04-08T10:02:12.197Z,5.05
2023-04-08T10:04:42.360Z,4.10
2023-04-08T10:07:09.946Z,3.85
2023-04-08T10:09:39.639Z,5.00
2023-04-08T10:12:07.401Z,4.80
2023-04-08T10:14:34.698Z,4.85
2023-04-08T10:17:26.854Z,4.25
2023-04-08T10:19:54.291Z,3.92
2023-04-08T10:22:34.650Z,3.80
2023-04-08T10:25:17.160Z,3.92
2023-04-08T10:27:45.516Z,3.65
2023-04-08T10:30:27.647Z,3.72
2023-04-08T10:33:02.246Z,3.10
2023-04-08T10:35:35.419Z,3.72
2023-04-08T10:38:03.860Z,4.13
2023-04-08T10:40:39.106Z,3.83
2023-04-08T10:43:06.493Z,3.40
2023-04-08T10:45:34.438Z,3.60
2023-04-08T10:48:25.129Z,3.80
2023-04-08T10:50:54.984Z,3.80
2023-04-08T10:53:35.694Z,3.85
2023-04-08T10:56:09.225Z,4.00
2023-04-08T10:58:37.179Z,4.15
2023-04-08T11:01:08.598Z,4.13
2023-04-08T11:03:37.962Z,4.20
2023-04-08T11:06:05.942Z,4.50
2023-04-08T11:08:34.273Z,3.28
2023-04-08T11:11:02.367Z,4.45
2023-04-08T11:13:29.878Z,4.13
2023-04-08T11:16:02.803Z,4.40
2023-04-08T11:18:35.763Z,4.55
2023-04-08T11:21:03.736Z,3.80
2023-04-08T11:23:31.343Z,4.65
2023-04-08T11:25:58.663Z,5.22
2023-04-08T11:28:26.290Z,4.80
2023-04-08T11:30:55.308Z,4.63
2023-04-08T11:33:25.021Z,4.53
2023-04-08T11:35:52.467Z,4.20
2023-04-08T11:38:23.301Z,4.18
2023-04-08T11:40:59.153Z,4.70
2023-04-08T11:43:27.198Z,5.20
2023-04-08T11:45:54.434Z,4.95
2023-04-08T11:48:21.954Z,4.38
2023-04-08T11:51:02.312Z,4.68
2023-04-08T11:53:29.916Z,4.43
2023-04-08T11:55:58.031Z,4.80
2023-04-08T11:58:25.140Z,4.43
2023-04-08T12:00:52.450Z,4.50
2023-04-08T12:03:19.654Z,4.90
2023-04-08T12:05:46.840Z,4.60
2023-04-08T12:08:14.040Z,4.88
2023-04-08T12:10:41.364Z,4.85
2023-04-08T12:13:09.126Z,4.43
2023-04-08T12:15:36.182Z,4.68
2023-04-08T12:18:03.409Z,4.82
2023-04-08T12:20:30.856Z,5.18
2023-04-08T12:22:57.869Z,5.20
2023-04-08T12:25:25.082Z,5.72
2023-04-08T12:27:52.727Z,5.85
2023-04-08T12:30:20.434Z,5.20
2023-04-08T12:32:47.863Z,5.20
2023-04-08T12:35:15.368Z,4.53
2023-04-08T12:37:42.429Z,5.03
2023-04-08T12:40:09.803Z,4.43
2023-04-08T12:42:37.098Z,4.45
2023-04-08T12:45:07.464Z,4.55
2023-04-08T12:47:35.151Z,4.63
2023-04-08T12:50:02.373Z,4.38
2023-04-08T12:52:30.569Z,4.72
2023-04-08T12:54:57.635Z,4.30
2023-04-08T12:57:24.924Z,4.63
2023-04-08T12:59:51.950Z,4.10
2023-04-08T13:02:19.134Z,4.10
2023-04-08T13:04:46.533Z,4.60
2023-04-08T13:07:13.755Z,4.43
2023-04-08T13:09:40.912Z,4.20
2023-04-08T13:12:08.037Z,4.30
2023-04-08T13:14:35.317Z,4.28
2023-04-08T13:17:02.411Z,4.72
2023-04-08T13:19:29.496Z,4.10
2023-04-08T13:21:56.875Z,4.63
2023-04-08T13:24:24.161Z,5.10
2023-04-08T13:26:51.729Z,5.20
2023-04-08T13:29:18.776Z,5.85
2023-04-08T13:31:46.303Z,5.82
2023-04-08T13:34:13.440Z,5.20
2023-04-08T13:36:40.748Z,5.90
2023-04-08T13:39:07.934Z,6.45
2023-04-08T13:41:35.204Z,6.18
2023-04-08T13:44:02.350Z,6.82
2023-04-08T13:46:29.595Z,6.28
2023-04-08T13:48:56.896Z,5.90
2023-04-08T13:51:24.265Z,6.30
2023-04-08T13:53:51.357Z,5.75
2023-04-08T13:56:18.569Z,5.78
2023-04-08T13:58:52.319Z,5.50
2023-04-08T14:01:24.534Z,6.45
2023-04-08T14:03:52.045Z,5.90
2023-04-08T14:06:19.096Z,6.10
2023-04-08T14:08:46.133Z,6.05
2023-04-08T14:11:13.300Z,6.35
2023-04-08T14:13:42.127Z,5.70
2023-04-08T14:16:09.223Z,5.60
2023-04-08T14:18:36.578Z,6.15
2023-04-08T14:21:04.337Z,6.53
2023-04-08T14:23:31.460Z,6.13
2023-04-08T14:25:58.552Z,6.68
2023-04-08T14:28:25.802Z,7.10
2023-04-08T14:30:53.128Z,6.30
2023-04-08T14:33:20.766Z,6.25
2023-04-08T14:35:48.003Z,7.10
2023-04-08T14:38:15.316Z,6.70
2023-04-08T14:40:42.474Z,6.05
2023-04-08T14:43:09.599Z,6.65
2023-04-08T14:45:36.789Z,6.30
2023-04-08T14:48:04.016Z,5.57
2023-04-08T14:50:31.871Z,5.90
2023-04-08T14:53:00.636Z,5.78
2023-04-08T14:55:29.877Z,6.20
2023-04-08T14:57:58.093Z,5.22
2023-04-08T15:00:26.807Z,5.28
2023-04-08T15:02:54.224Z,5.88
2023-04-08T15:05:21.398Z,5.95
2023-04-08T15:07:49.267Z,5.35
2023-04-08T15:10:16.340Z,5.47
2023-04-08T15:12:43.374Z,5.75
2023-04-08T15:15:10.797Z,5.35
2023-04-08T15:17:38.050Z,5.47
2023-04-08T15:20:05.822Z,5.55
2023-04-08T15:22:33.263Z,5.20
2023-04-08T15:25:01.084Z,5.50
2023-04-08T15:27:30.105Z,5.70
2023-04-08T15:29:57.484Z,6.18
2023-04-08T15:32:24.896Z,6.32
2023-04-08T15:34:52.867Z,5.32
2023-04-08T15:37:20.992Z,5.10
2023-04-08T15:39:50.691Z,5.40
2023-04-08T15:42:17.912Z,5.90
2023-04-08T15:44:44.912Z,5.85
2023-04-08T15:47:12.249Z,5.70
2023-04-08T15:49:39.402Z,5.40
2023-04-08T15:52:07.218Z,5.75
2023-04-08T15:54:35.208Z,5.97
2023-04-08T15:57:02.748Z,5.90
2023-04-08T15:59:33.375Z,6.20
2023-04-08T16:02:00.979Z,6.47
2023-04-08T16:04:28.172Z,7.25
2023-04-08T16:06:55.371Z,7.30
2023-04-08T16:09:25.837Z,7.15
2023-04-08T16:11:53.620Z,7.35
2023-04-08T16:14:21.150Z,7.15
2023-04-08T16:16:49.358Z,7.90
2023-04-08T16:19:17.453Z,7.32
2023-04-08T16:21:44.633Z,8.38
2023-04-08T16:24:12.165Z,7.32
2023-04-08T16:26:39.552Z,7.38
2023-04-08T16:29:08.342Z,7.07
2023-04-08T16:31:35.455Z,6.72
2023-04-08T16:34:03.105Z,7.20
2023-04-08T16:36:30.420Z,7.38
2023-04-08T16:38:57.591Z,6.70
2023-04-08T16:41:24.710Z,6.57
2023-04-08T16:43:52.307Z,6.03
2023-04-08T16:46:19.738Z,6.85
2023-04-08T16:48:46.837Z,6.53
2023-04-08T16:51:14.028Z,6.88
2023-04-08T16:53:41.304Z,5.47
2023-04-08T16:56:16.282Z,5.75
2023-04-08T16:58:43.708Z,5.97
2023-04-08T17:01:11.459Z,5.35
2023-04-08T17:03:38.866Z,5.28
2023-04-08T17:06:12.762Z,5.72
2023-04-08T17:08:44.276Z,5.07
2023-04-08T17:11:13.988Z,5.40
2023-04-08T17:13:43.127Z,6.00
2023-04-08T17:16:15.887Z,5.75
2023-04-08T17:18:44.373Z,5.95
2023-04-08T17:21:12.553Z,5.68
2023-04-08T17:23:40.009Z,5.90
2023-04-08T17:26:11.707Z,5.28
2023-04-08T17:28:39.419Z,5.60
2023-04-08T17:31:06.625Z,5.00
2023-04-08T17:33:34.189Z,5.45
2023-04-08T17:36:01.710Z,6.03
2023-04-08T17:38:28.976Z,5.70
2023-04-08T17:40:56.530Z,5.10
2023-04-08T17:43:24.018Z,5.97
2023-04-08T17:45:51.726Z,5.70
2023-04-08T17:48:18.916Z,6.00
2023-04-08T17:50:46.061Z,5.68
2023-04-08T17:53:13.232Z,5.95
2023-04-08T17:55:40.444Z,5.55
2023-04-08T17:58:07.531Z,5.47
2023-04-08T18:00:34.711Z,5.70
2023-04-08T18:03:02.169Z,5.68
2023-04-08T18:05:30.192Z,5.63
2023-04-08T18:07:58.612Z,5.78
2023-04-08T18:10:25.907Z,5.47
2023-04-08T18:13:03.783Z,6.60
2023-04-08T18:15:38.146Z,6.00
2023-04-08T18:18:05.612Z,6.30
2023-04-08T18:20:37.298Z,6.63
2023-04-08T18:23:04.832Z,7.28
2023-04-08T18:25:32.602Z,6.43
2023-04-08T18:27:59.806Z,6.45
2023-04-08T18:30:27.434Z,6.78
2023-04-08T18:32:54.791Z,6.43
2023-04-08T18:35:22.015Z,6.90
2023-04-08T18:37:49.227Z,6.35
2023-04-08T18:40:16.949Z,6.55
2023-04-08T18:42:44.033Z,6.35
2023-04-08T18:45:11.191Z,6.53
2023-04-08T18:47:38.495Z,6.30
2023-04-08T18:50:06.588Z,5.70
2023-04-08T18:52:33.770Z,5.70
2023-04-08T18:55:02.873Z,6.20
2023-04-08T18:57:30.813Z,5.50
2023-04-08T18:59:57.916Z,6.15
2023-04-08T19:02:28.308Z,6.00
2023-04-08T19:04:55.972Z,6.32
2023-04-08T19:07:23.541Z,6.68
2023-04-08T19:09:50.788Z,6.32
2023-04-08T19:12:17.821Z,5.80
2023-04-08T19:14:45.449Z,4.93
2023-04-08T19:17:12.754Z,5.32
2023-04-08T19:19:39.916Z,5.18
2023-04-08T19:22:07.365Z,5.57
2023-04-08T19:24:35.065Z,5.63
2023-04-08T19:27:02.114Z,5.30
2023-04-08T19:29:31.370Z,5.05
2023-04-08T19:31:59.788Z,5.60
2023-04-08T19:34:27.110Z,5.07
2023-04-08T19:36:54.486Z,5.32
2023-04-08T19:39:23.556Z,5.25
2023-04-08T19:41:52.398Z,4.82
2023-04-08T19:44:19.473Z,5.45
2023-04-08T19:46:46.689Z,4.70
2023-04-08T19:49:13.930Z,4.90
2023-04-08T19:51:41.180Z,4.88
2023-04-08T19:54:08.401Z,4.75
2023-04-08T19:56:35.848Z,4.88
2023-04-08T19:59:03.113Z,4.68
2023-04-08T20:01:30.316Z,4.90
2023-04-08T20:03:57.753Z,4.70
2023-04-08T20:06:24.842Z,5.28
2023-04-08T20:08:53.621Z,4.95
2023-04-08T20:11:21.261Z,4.75
2023-04-08T20:13:51.611Z,4.78
2023-04-08T20:16:19.763Z,4.80
2023-04-08T20:18:47.239Z,4.70
2023-04-08T20:21:14.768Z,5.32
2023-04-08T20:23:44.585Z,5.32
2023-04-08T20:26:13.142Z,5.63
2023-04-08T20:28:41.286Z,5.30
2023-04-08T20:31:10.103Z,5.40
2023-04-08T20:33:44.010Z,5.22
2023-04-08T20:36:14.257Z,5.13
2023-04-08T20:38:42.719Z,5.20
2023-04-08T20:41:10.055Z,5.30
2023-04-08T20:43:37.342Z,5.13
2023-04-08T20:46:04.825Z,5.10
2023-04-08T20:48:33.253Z,5.20
2023-04-08T20:51:00.566Z,5.03
2023-04-08T20:53:27.733Z,5.00
2023-04-08T20:55:54.913Z,4.70
2023-04-08T20:58:21.953Z,5.53
2023-04-08T21:00:49.335Z,4.70
2023-04-08T21:03:17.197Z,5.03
2023-04-08T21:05:44.858Z,4.88
2023-04-08T21:08:13.515Z,4.57
2023-04-08T21:10:40.532Z,4.63
2023-04-08T21:13:07.634Z,4.70
2023-04-08T21:15:34.876Z,4.90
2023-04-08T21:18:02.979Z,4.97
2023-04-08T21:20:30.392Z,4.80
2023-04-08T21:22:59.133Z,4.60
2023-04-08T21:25:26.914Z,4.13
2023-04-08T21:27:55.514Z,4.45
2023-04-08T21:30:23.760Z,4.15
2023-04-08T21:32:50.829Z,4.13
2023-04-08T21:35:18.171Z,4.05
2023-04-08T21:37:46.329Z,4.20
2023-04-08T21:40:13.624Z,4.70
2023-04-08T21:42:40.717Z,4.93
2023-04-08T21:45:08.552Z,5.18
2023-04-08T21:47:36.039Z,4.95
2023-04-08T21:50:03.439Z,5.10
2023-04-08T21:52:31.612Z,5.00
2023-04-08T21:54:59.164Z,5.13
2023-04-08T21:57:26.602Z,5.15
2023-04-08T21:59:53.861Z,4.68
2023-04-08T22:02:21.062Z,5.63
2023-04-08T22:04:49.065Z,5.55
2023-04-08T22:07:16.737Z,5.35
2023-04-08T22:09:44.325Z,5.30
2023-04-08T22:12:11.702Z,5.20
2023-04-08T22:14:41.765Z,5.80
2023-04-08T22:17:09.063Z,5.47
2023-04-08T22:19:36.631Z,5.05
2023-04-08T22:22:03.762Z,5.63
2023-04-08T22:24:30.951Z,5.65
2023-04-08T22:26:58.879Z,5.60
2023-04-08T22:29:26.142Z,5.20
2023-04-08T22:31:53.526Z,6.20
2023-04-08T22:34:20.857Z,5.97
2023-04-08T22:36:48.072Z,5.90
2023-04-08T22:39:15.251Z,5.40
2023-04-08T22:41:42.530Z,6.00
2023-04-08T22:44:09.770Z,6.43
2023-04-08T22:46:36.966Z,5.55
2023-04-08T22:49:04.070Z,5.53
2023-04-08T22:51:31.190Z,5.55
2023-04-08T22:53:59.794Z,6.38
2023-04-08T22:56:29.043Z,6.03
2023-04-08T22:58:56.287Z,5.68
2023-04-08T23:01:23.392Z,5.60
2023-04-08T23:03:50.723Z,5.90
2023-04-08T23:06:17.944Z,5.55
2023-04-08T23:08:45.293Z,5.30
2023-04-08T23:11:12.403Z,5.30
2023-04-08T23:13:40.646Z,5.40
2023-04-08T23:16:09.317Z,5.68
2023-04-08T23:18:36.506Z,5.05
2023-04-08T23:21:04.203Z,5.47
2023-04-08T23:23:31.323Z,5.97
2023-04-08T23:25:58.401Z,5.30
2023-04-08T23:28:25.723Z,6.13
2023-04-08T23:30:53.062Z,5.82
2023-04-08T23:33:20.114Z,5.88
2023-04-08T23:35:47.398Z,5.55
2023-04-08T23:38:14.476Z,5.32
2023-04-08T23:40:41.581Z,5.60
2023-04-08T23:43:08.693Z,5.63
2023-04-08T23:45:35.744Z,5.70
2023-04-08T23:48:02.823Z,5.28
2023-04-08T23:50:29.985Z,5.80
2023-04-08T23:52:57.182Z,5.30
2023-04-08T23:55:24.282Z,5.93
2023-04-08T23:57:53.840Z,5.30
